createdAt,value
2023-04-24T00:03:51.677Z,11.40
2023-04-24T00:13:54.935Z,12.20
2023-04-24T00:23:58.017Z,12.00
2023-04-24T00:34:01.813Z,10.90
2023-04-24T00:44:05.097Z,15.80
2023-04-24T00:54:08.169Z,13.60
2023-04-24T01:04:13.049Z,13.80
2023-04-24T01:14:16.421Z,13.40
2023-04-24T01:24:20.551Z,15.70
2023-04-24T01:34:23.763Z,11.50
2023-04-24T01:44:27.399Z,13.90
2023-04-24T01:54:30.527Z,9.70
2023-04-24T02:04:34.387Z,13.70
2023-04-24T02:14:37.529Z,10.90
2023-04-24T02:24:40.693Z,9.80
2023-04-24T02:34:43.976Z,11.90
2023-04-24T02:44:47.031Z,11.90
2023-04-24T02:54:50.237Z,13.50
2023-04-24T03:04:53.855Z,14.20
2023-04-24T03:14:57.512Z,11.80
2023-04-24T03:25:00.616Z,12.10
2023-04-24T03:35:04.544Z,11.70
2023-04-24T03:45:09.609Z,13.40
2023-04-24T03:55:14.883Z,18.40
2023-04-24T04:15:25.320Z,13.50
2023-04-24T04:25:28.857Z,18.70
2023-04-24T04:35:32.512Z,21.00
2023-04-24T04:45:36.078Z,16.70
2023-04-24T04:55:55.117Z,15.20
2023-04-24T05:06:04.020Z,15.00
2023-04-24T05:16:09.691Z,13.40
2023-04-24T05:26:14.900Z,11.10
2023-04-24T05:36:18.265Z,12.90
2023-04-24T05:46:21.692Z,11.60
2023-04-24T05:56:25.183Z,8.40
2023-04-24T06:06:30.013Z,10.50
2023-04-24T06:16:33.918Z,9.80
2023-04-24T06:26:42.514Z,8.60
2023-04-24T06:36:45.956Z,9.20
2023-04-24T06:46:49.096Z,7.30
2023-04-24T06:56:53.384Z,9.40
2023-04-24T07:06:57.141Z,12.10
2023-04-24T07:17:00.297Z,9.20
2023-04-24T07:27:04.368Z,6.60
2023-04-24T07:37:07.586Z,5.40
2023-04-24T07:47:14.313Z,3.60
2023-04-24T07:57:17.906Z,4.60
2023-04-24T08:27:41.339Z,4.20
2023-04-24T08:37:44.418Z,4.20
2023-04-24T08:47:48.944Z,3.70
2023-04-24T08:57:54.002Z,4.50
2023-04-24T09:07:58.025Z,4.20
2023-04-24T09:18:02.468Z,4.50
2023-04-24T09:28:07.999Z,3.90
2023-04-24T09:38:11.931Z,4.60
2023-04-24T09:48:14.980Z,4.10
2023-04-24T09:58:18.463Z,4.10
2023-04-24T10:08:23.982Z,6.30
2023-04-24T10:18:28.684Z,5.10
2023-04-24T10:28:33.100Z,5.50
2023-04-24T10:38:38.321Z,5.60
2023-04-24T10:48:44.801Z,3.60
2023-04-24T10:58:53.483Z,4.70
2023-04-24T11:09:05.324Z,4.30
2023-04-24T11:19:20.465Z,3.70
2023-04-24T11:30:15.678Z,6.00
2023-04-24T11:40:57.664Z,8.00
2023-04-24T11:51:31.376Z,4.60
2023-04-24T12:01:50.286Z,8.50
2023-04-24T12:11:58.053Z,7.10
2023-04-24T12:22:07.676Z,5.00
2023-04-24T12:32:20.975Z,10.10
2023-04-24T12:42:32.003Z,6.20
2023-04-24T12:52:35.640Z,5.30
2023-04-24T13:02:39.679Z,9.40
2023-04-24T13:12:46.735Z,5.40
2023-04-24T13:32:53.463Z,6.90
2023-04-24T13:42:56.761Z,3.20
2023-04-24T13:53:02.689Z,3.30
2023-04-24T14:03:06.630Z,6.80
2023-04-24T14:13:10.539Z,3.50
2023-04-24T14:23:14.061Z,4.40
2023-04-24T14:33:18.631Z,4.20
2023-04-24T14:43:21.920Z,4.60
2023-04-24T14:53:26.520Z,5.30
2023-04-24T15:03:30.740Z,6.80
2023-04-24T15:13:34.426Z,4.70
2023-04-24T15:23:37.517Z,4.90
2023-04-24T15:33:40.701Z,7.90
2023-04-24T15:43:44.377Z,8.20
2023-04-24T15:53:47.843Z,4.50
2023-04-24T16:03:51.682Z,5.60
2023-04-24T16:13:55.396Z,3.70
2023-04-24T16:23:58.945Z,4.70
2023-04-24T16:34:02.204Z,10.30
2023-04-24T16:44:05.406Z,8.00
2023-04-24T16:54:09.327Z,7.00
2023-04-24T17:04:14.129Z,7.50
2023-04-24T17:14:17.859Z,7.30
2023-04-24T17:24:20.866Z,6.40
2023-04-24T17:34:24.747Z,9.30
2023-04-24T17:44:27.925Z,8.90
2023-04-24T17:54:30.983Z,14.20
2023-04-24T18:04:34.583Z,14.00
2023-04-24T18:14:38.205Z,14.70
2023-04-24T18:24:41.247Z,12.80
2023-04-24T18:34:44.301Z,13.50
2023-04-24T18:44:48.265Z,11.90
2023-04-24T18:54:51.589Z,16.00
2023-04-24T19:04:54.625Z,17.60
2023-04-24T19:14:58.360Z,18.30
2023-04-24T19:25:01.971Z,17.70
2023-04-24T19:35:06.945Z,20.00
2023-04-24T19:45:12.501Z,20.00
2023-04-24T19:55:15.853Z,24.20
2023-04-24T20:05:21.923Z,21.70
2023-04-24T20:15:25.149Z,20.50
2023-04-24T20:25:28.876Z,19.20
2023-04-24T20:35:32.617Z,25.90
2023-04-24T20:45:35.892Z,22.00
2023-04-24T20:55:38.958Z,24.10
2023-04-24T21:05:42.029Z,27.50
2023-04-24T21:15:45.440Z,25.20
2023-04-24T21:25:48.545Z,26.70
2023-04-24T21:35:52.575Z,30.60
2023-04-24T21:45:56.810Z,27.90
2023-04-24T21:56:01.281Z,27.70
2023-04-24T22:06:04.906Z,28.10
2023-04-24T22:16:08.308Z,35.60
2023-04-24T22:26:11.728Z,32.20
2023-04-24T22:36:17.627Z,29.10
2023-04-24T22:46:21.296Z,29.90
2023-04-24T22:56:27.902Z,34.10
2023-04-24T23:06:31.701Z,27.40
2023-04-24T23:16:47.815Z,28.80
2023-04-24T23:26:54.453Z,28.80
2023-04-24T23:36:58.202Z,25.70
2023-04-24T23:47:01.919Z,29.30
2023-04-24T23:57:04.938Z,24.40
